This is the latest recevied weather packets stored in our database for station/object VK2BNC-13. If no packets are shown the sender has not sent any weather packets the latest 10 day(s).
| Time | Temp. | Humidity | Pressure | Rain* | Wind** | Luminosity | Snow |
|---|---|---|---|---|---|---|---|
| 1788169073 | 16.67° C | 76% | - | 0 mm | - | - | - |
| 1788168186 | 16.67° C | 75% | - | 0 mm | - | - | - |
| 1788167274 | 17.22° C | 74% | - | 0 mm | - | - | - |
| 1788166373 | 17.78° C | 73% | - | 0 mm | - | - | - |
| 1788165473 | 18.33° C | 72% | - | 0 mm | - | - | - |
| 1788164573 | 18.89° C | 71% | - | 0 mm | - | - | - |
| 1788163672 | 19.44° C | 69% | - | 0 mm | - | - | - |
| 1788162773 | 20° C | 68% | - | 0 mm | - | - | - |
| 1788161872 | 20.56° C | 66% | - | 0 mm | - | - | - |
| 1788160971 | 21.11° C | 65% | - | 0 mm | - | - | - |
| 1788160071 | 21.67° C | 62% | - | 0 mm | - | - | - |
| 1788159171 | 22.78° C | 58% | - | 0 mm | - | - | - |
| 1788158270 | 23.33° C | 53% | - | 0 mm | - | - | - |
| 1788157368 | 23.89° C | 51% | - | 0 mm | - | - | - |
| 1788156458 | 24.44° C | 45% | - | 0 mm | - | - | - |
| 1788155559 | 25° C | 44% | - | 0 mm | - | - | - |
| 1788154659 | 25.56° C | 43% | - | 0 mm | - | - | - |
| 1788153758 | 25.56° C | 38% | - | 0 mm | - | - | - |
| 1788152856 | 25.56° C | 39% | - | 0 mm | - | - | - |
| 1788151956 | 25° C | 41% | - | 0 mm | - | - | - |
| 1788151055 | 25° C | 41% | - | 0 mm | - | - | - |
| 1788150155 | 24.44° C | 41% | - | 0 mm | - | - | - |
| 1788149255 | 25° C | 42% | - | 0 mm | - | - | - |
| 1788148355 | 24.44° C | 42% | - | 0 mm | - | - | - |
| 1788147454 | 23.89° C | 45% | - | 0 mm | - | - | - |
* Rain latest hour (hover to see other rain measurements)
** Current wind speed in m/s (hover to see current wind gust speed)